createdAt,value
2023-05-21T00:00:32.092Z,1013.35
2023-05-21T00:01:32.091Z,1013.33
2023-05-21T00:02:32.107Z,1013.31
2023-05-21T00:03:32.162Z,1013.31
2023-05-21T00:04:32.057Z,1013.30
2023-05-21T00:05:32.129Z,1013.30
2023-05-21T00:06:32.077Z,1013.29
2023-05-21T00:07:32.047Z,1013.30
2023-05-21T00:08:32.010Z,1013.30
2023-05-21T00:09:32.009Z,1013.27
2023-05-21T00:10:32.138Z,1013.28
2023-05-21T00:11:32.051Z,1013.27
2023-05-21T00:12:31.979Z,1013.28
2023-05-21T00:13:31.974Z,1013.27
2023-05-21T00:14:31.974Z,1013.27
2023-05-21T00:15:31.937Z,1013.25
2023-05-21T00:16:31.967Z,1013.26
2023-05-21T00:17:31.956Z,1013.25
2023-05-21T00:18:31.920Z,1013.25
2023-05-21T00:19:31.970Z,1013.23
2023-05-21T00:20:31.904Z,1013.22
2023-05-21T00:21:31.888Z,1013.21
2023-05-21T00:22:31.876Z,1013.20
2023-05-21T00:23:31.892Z,1013.19
2023-05-21T00:24:31.825Z,1013.19
2023-05-21T00:25:31.862Z,1013.18
2023-05-21T00:26:31.823Z,1013.16
2023-05-21T00:27:31.843Z,1013.16
2023-05-21T00:28:31.829Z,1013.14
2023-05-21T00:29:31.786Z,1013.12
2023-05-21T00:30:31.818Z,1013.11
2023-05-21T00:31:31.834Z,1013.09
2023-05-21T00:32:31.786Z,1013.09
2023-05-21T00:33:31.765Z,1013.09
2023-05-21T00:34:31.729Z,1013.08
2023-05-21T00:35:31.761Z,1013.10
2023-05-21T00:36:31.773Z,1013.11
2023-05-21T00:37:31.702Z,1013.10
2023-05-21T00:38:31.704Z,1013.10
2023-05-21T00:39:31.722Z,1013.10
2023-05-21T00:40:31.682Z,1013.08
2023-05-21T00:41:31.683Z,1013.08
2023-05-21T00:42:31.667Z,1013.08
2023-05-21T00:43:31.674Z,1013.05
2023-05-21T00:44:31.641Z,1013.04
2023-05-21T00:45:31.751Z,1013.03
2023-05-21T00:46:31.657Z,1013.04
2023-05-21T00:47:31.680Z,1013.00
2023-05-21T00:48:31.643Z,1013.00
2023-05-21T00:49:31.594Z,1012.96
2023-05-21T00:50:31.576Z,1012.93
2023-05-21T00:51:31.640Z,1012.94
2023-05-21T00:52:31.564Z,1012.92
2023-05-21T00:53:31.560Z,1012.92
2023-05-21T00:54:31.549Z,1012.93
2023-05-21T00:55:31.550Z,1012.92
2023-05-21T00:56:31.522Z,1012.93
2023-05-21T00:57:31.536Z,1012.92
2023-05-21T00:58:31.551Z,1012.91
2023-05-21T00:59:31.505Z,1012.92
2023-05-21T01:00:32.354Z,1012.91
2023-05-21T01:01:31.468Z,1012.91
2023-05-21T01:02:31.543Z,1012.92
2023-05-21T01:03:31.505Z,1012.91
2023-05-21T01:04:31.425Z,1012.91
2023-05-21T01:05:31.434Z,1012.90
2023-05-21T01:06:31.402Z,1012.89
2023-05-21T01:07:31.417Z,1012.88
2023-05-21T01:08:31.435Z,1012.89
2023-05-21T01:09:31.395Z,1012.88
2023-05-21T01:10:31.371Z,1012.87
2023-05-21T01:11:31.388Z,1012.88
2023-05-21T01:12:31.349Z,1012.88
2023-05-21T01:13:31.365Z,1012.88
2023-05-21T01:14:31.357Z,1012.86
2023-05-21T01:15:31.322Z,1012.84
2023-05-21T01:16:31.349Z,1012.82
2023-05-21T01:17:31.319Z,1012.82
2023-05-21T01:18:31.406Z,1012.79
2023-05-21T01:19:31.376Z,1012.78
2023-05-21T01:20:31.249Z,1012.77
2023-05-21T01:21:31.308Z,1012.76
2023-05-21T01:22:31.267Z,1012.77
2023-05-21T01:23:31.241Z,1012.76
2023-05-21T01:24:31.226Z,1012.75
2023-05-21T01:25:31.262Z,1012.75
2023-05-21T01:26:31.213Z,1012.76
2023-05-21T01:27:31.218Z,1012.74
2023-05-21T01:28:31.186Z,1012.73
2023-05-21T01:29:31.253Z,1012.72
2023-05-21T01:30:31.190Z,1012.71
2023-05-21T01:31:31.245Z,1012.70
2023-05-21T01:32:31.175Z,1012.71
2023-05-21T01:33:31.201Z,1012.71
2023-05-21T01:34:31.139Z,1012.71
2023-05-21T01:35:31.184Z,1012.70
2023-05-21T01:36:31.138Z,1012.70
2023-05-21T01:37:31.097Z,1012.66
2023-05-21T01:38:31.114Z,1012.67
2023-05-21T01:39:31.100Z,1012.67
2023-05-21T01:40:31.070Z,1012.68
2023-05-21T01:41:31.948Z,1012.68
2023-05-21T01:42:31.065Z,1012.67
2023-05-21T01:43:31.080Z,1012.67
2023-05-21T01:44:31.047Z,1012.67
2023-05-21T01:45:31.809Z,1012.66
2023-05-21T01:46:31.058Z,1012.65
2023-05-21T01:47:31.012Z,1012.65
2023-05-21T01:48:31.008Z,1012.64
2023-05-21T01:49:30.990Z,1012.63
2023-05-21T01:50:30.964Z,1012.62
2023-05-21T01:51:31.131Z,1012.60
2023-05-21T01:52:30.915Z,1012.61
2023-05-21T01:53:30.941Z,1012.62
2023-05-21T01:54:30.921Z,1012.62
2023-05-21T01:55:30.921Z,1012.63
2023-05-21T01:56:30.892Z,1012.63
2023-05-21T01:57:30.916Z,1012.63
2023-05-21T01:58:30.874Z,1012.62
2023-05-21T01:59:30.889Z,1012.62
2023-05-21T02:00:30.870Z,1012.60
2023-05-21T02:01:30.890Z,1012.58
2023-05-21T02:02:30.883Z,1012.57
2023-05-21T02:03:30.886Z,1012.56
2023-05-21T02:04:30.809Z,1012.57
2023-05-21T02:05:30.828Z,1012.56
2023-05-21T02:06:30.777Z,1012.56
2023-05-21T02:07:30.794Z,1012.56
2023-05-21T02:08:30.777Z,1012.55
2023-05-21T02:09:30.744Z,1012.53
2023-05-21T02:10:30.767Z,1012.54
2023-05-21T02:11:30.753Z,1012.54
2023-05-21T02:12:30.728Z,1012.53
2023-05-21T02:13:30.729Z,1012.53
2023-05-21T02:14:30.716Z,1012.54
2023-05-21T02:15:30.673Z,1012.52
2023-05-21T02:16:30.797Z,1012.52
2023-05-21T02:17:30.887Z,1012.52
2023-05-21T02:18:30.684Z,1012.49
2023-05-21T02:19:30.739Z,1012.49
2023-05-21T02:20:30.712Z,1012.46
2023-05-21T02:21:30.642Z,1012.47
2023-05-21T02:22:30.660Z,1012.47
2023-05-21T02:23:30.619Z,1012.45
2023-05-21T02:24:30.619Z,1012.44
2023-05-21T02:25:30.609Z,1012.44
2023-05-21T02:26:30.604Z,1012.43
2023-05-21T02:27:30.588Z,1012.42
2023-05-21T02:28:30.595Z,1012.42
2023-05-21T02:29:30.532Z,1012.42
2023-05-21T02:30:30.556Z,1012.42
2023-05-21T02:31:30.518Z,1012.41
2023-05-21T02:32:30.637Z,1012.42
2023-05-21T02:33:30.508Z,1012.40
2023-05-21T02:34:30.605Z,1012.41
2023-05-21T02:35:30.982Z,1012.39
2023-05-21T02:36:30.501Z,1012.40
2023-05-21T02:37:30.465Z,1012.39
2023-05-21T02:38:30.500Z,1012.39
2023-05-21T02:39:30.462Z,1012.39
2023-05-21T02:40:30.474Z,1012.37
2023-05-21T02:41:30.432Z,1012.39
2023-05-21T02:42:30.448Z,1012.40
2023-05-21T02:43:30.458Z,1012.38
2023-05-21T02:44:30.425Z,1012.39
2023-05-21T02:45:30.438Z,1012.38
2023-05-21T02:46:30.504Z,1012.39
2023-05-21T02:47:30.471Z,1012.38
2023-05-21T02:48:30.371Z,1012.39
2023-05-21T02:49:30.434Z,1012.40
2023-05-21T02:50:30.358Z,1012.40
2023-05-21T02:51:30.272Z,1012.40
2023-05-21T02:52:30.339Z,1012.38
2023-05-21T02:53:30.256Z,1012.35
2023-05-21T02:54:30.282Z,1012.35
2023-05-21T02:55:30.285Z,1012.34
2023-05-21T02:56:30.257Z,1012.33
2023-05-21T02:57:30.220Z,1012.32
2023-05-21T02:58:30.208Z,1012.30
2023-05-21T02:59:30.316Z,1012.29
2023-05-21T03:00:30.205Z,1012.28
2023-05-21T03:01:30.215Z,1012.29
2023-05-21T03:02:30.334Z,1012.29
2023-05-21T03:03:30.349Z,1012.29
2023-05-21T03:04:30.177Z,1012.29
2023-05-21T03:05:30.145Z,1012.30
2023-05-21T03:06:30.127Z,1012.30
2023-05-21T03:07:30.156Z,1012.29
2023-05-21T03:08:30.125Z,1012.29
2023-05-21T03:09:30.111Z,1012.30
2023-05-21T03:10:30.084Z,1012.30
2023-05-21T03:11:30.080Z,1012.30
2023-05-21T03:12:30.102Z,1012.31
2023-05-21T03:13:30.122Z,1012.29
2023-05-21T03:14:30.046Z,1012.31
2023-05-21T03:15:30.080Z,1012.31
2023-05-21T03:16:30.031Z,1012.31
2023-05-21T03:17:30.095Z,1012.30
2023-05-21T03:18:30.045Z,1012.31
2023-05-21T03:19:30.027Z,1012.29
2023-05-21T03:20:29.985Z,1012.28
2023-05-21T03:21:30.012Z,1012.27
2023-05-21T03:22:29.966Z,1012.26
2023-05-21T03:23:29.953Z,1012.27
2023-05-21T03:24:29.938Z,1012.26
2023-05-21T03:25:29.930Z,1012.27
2023-05-21T03:26:29.893Z,1012.27
2023-05-21T03:27:29.919Z,1012.27
2023-05-21T03:28:29.928Z,1012.27
2023-05-21T03:29:29.862Z,1012.28
2023-05-21T03:30:29.868Z,1012.28
2023-05-21T03:31:29.856Z,1012.27
2023-05-21T03:32:29.883Z,1012.28
2023-05-21T03:33:29.823Z,1012.28
2023-05-21T03:34:29.823Z,1012.28
2023-05-21T03:35:29.810Z,1012.28
2023-05-21T03:36:29.813Z,1012.29
2023-05-21T03:37:29.781Z,1012.30
2023-05-21T03:38:29.783Z,1012.29
2023-05-21T03:39:29.757Z,1012.30
2023-05-21T03:40:29.767Z,1012.30
2023-05-21T03:41:29.770Z,1012.29
2023-05-21T03:42:29.751Z,1012.29
2023-05-21T03:43:29.744Z,1012.30
2023-05-21T03:44:29.700Z,1012.26
2023-05-21T03:45:29.757Z,1012.26
2023-05-21T03:46:29.752Z,1012.25
2023-05-21T03:47:29.706Z,1012.23
2023-05-21T03:48:29.753Z,1012.24
2023-05-21T03:49:29.712Z,1012.23
2023-05-21T03:50:29.670Z,1012.23
2023-05-21T03:51:29.658Z,1012.23
2023-05-21T03:52:29.653Z,1012.23
2023-05-21T03:53:29.634Z,1012.24
2023-05-21T03:54:29.599Z,1012.24
2023-05-21T03:55:29.602Z,1012.24
2023-05-21T03:56:29.621Z,1012.23
2023-05-21T03:57:29.562Z,1012.21
2023-05-21T03:58:29.579Z,1012.19
2023-05-21T03:59:29.572Z,1012.17
2023-05-21T04:00:29.549Z,1012.18
2023-05-21T04:01:29.562Z,1012.18
2023-05-21T04:02:29.600Z,1012.19
2023-05-21T04:03:29.789Z,1012.21
2023-05-21T04:04:29.620Z,1012.22
2023-05-21T04:05:29.535Z,1012.22
2023-05-21T04:06:29.555Z,1012.22
2023-05-21T04:07:29.477Z,1012.23
2023-05-21T04:08:29.519Z,1012.24
2023-05-21T04:09:29.443Z,1012.25
2023-05-21T04:10:29.448Z,1012.25
2023-05-21T04:11:29.463Z,1012.27
2023-05-21T04:12:29.509Z,1012.28
2023-05-21T04:13:29.437Z,1012.28
2023-05-21T04:14:29.426Z,1012.28
2023-05-21T04:15:29.390Z,1012.28
2023-05-21T04:16:29.451Z,1012.29
2023-05-21T04:17:29.381Z,1012.27
2023-05-21T04:18:29.396Z,1012.28
2023-05-21T04:19:29.397Z,1012.28
2023-05-21T04:20:29.326Z,1012.28
2023-05-21T04:21:29.318Z,1012.29
2023-05-21T04:22:29.349Z,1012.29
2023-05-21T04:23:29.324Z,1012.29
2023-05-21T04:24:29.302Z,1012.30
2023-05-21T04:25:29.288Z,1012.30
2023-05-21T04:26:29.262Z,1012.32
2023-05-21T04:27:29.306Z,1012.31
2023-05-21T04:28:29.251Z,1012.32
2023-05-21T04:29:29.240Z,1012.31
2023-05-21T04:30:29.230Z,1012.31
2023-05-21T04:31:29.318Z,1012.31
2023-05-21T04:32:29.273Z,1012.32
2023-05-21T04:33:29.220Z,1012.32
2023-05-21T04:34:29.204Z,1012.34
2023-05-21T04:35:29.170Z,1012.36
2023-05-21T04:36:29.172Z,1012.37
2023-05-21T04:37:29.316Z,1012.35
2023-05-21T04:38:29.212Z,1012.35
2023-05-21T04:39:29.163Z,1012.35
2023-05-21T04:40:29.131Z,1012.35
2023-05-21T04:41:29.118Z,1012.35
2023-05-21T04:42:29.132Z,1012.35
2023-05-21T04:43:29.111Z,1012.35
2023-05-21T04:44:29.099Z,1012.34
2023-05-21T04:45:29.105Z,1012.34
2023-05-21T04:46:29.125Z,1012.34
2023-05-21T04:47:29.092Z,1012.34
2023-05-21T04:48:29.078Z,1012.35
2023-05-21T04:49:29.065Z,1012.35
2023-05-21T04:50:29.054Z,1012.38
2023-05-21T04:51:28.990Z,1012.39
2023-05-21T04:52:29.064Z,1012.39
2023-05-21T04:53:28.990Z,1012.40
2023-05-21T04:54:28.994Z,1012.41
2023-05-21T04:55:28.974Z,1012.38
2023-05-21T04:56:28.979Z,1012.38
2023-05-21T04:57:28.942Z,1012.36
2023-05-21T04:58:29.018Z,1012.33
2023-05-21T04:59:28.909Z,1012.32
2023-05-21T05:00:28.972Z,1012.31
2023-05-21T05:01:28.932Z,1012.31
2023-05-21T05:02:29.068Z,1012.30
2023-05-21T05:03:28.965Z,1012.30
2023-05-21T05:04:28.894Z,1012.31
2023-05-21T05:05:28.915Z,1012.33
2023-05-21T05:06:28.856Z,1012.34
2023-05-21T05:07:28.947Z,1012.35
2023-05-21T05:08:28.888Z,1012.35
2023-05-21T05:09:28.812Z,1012.35
2023-05-21T05:10:28.867Z,1012.34
2023-05-21T05:11:28.791Z,1012.32
2023-05-21T05:12:28.787Z,1012.33
2023-05-21T05:13:28.776Z,1012.33
2023-05-21T05:14:28.778Z,1012.30
2023-05-21T05:15:28.973Z,1012.29
2023-05-21T05:16:28.771Z,1012.28
2023-05-21T05:17:28.769Z,1012.27
2023-05-21T05:18:28.770Z,1012.27
2023-05-21T05:19:28.797Z,1012.29
2023-05-21T05:20:28.716Z,1012.27
2023-05-21T05:21:28.688Z,1012.27
2023-05-21T05:22:28.687Z,1012.27
2023-05-21T05:23:28.663Z,1012.27
2023-05-21T05:24:28.683Z,1012.27
2023-05-21T05:25:28.660Z,1012.25
2023-05-21T05:26:28.665Z,1012.24
2023-05-21T05:27:28.662Z,1012.24
2023-05-21T05:28:29.270Z,1012.24
2023-05-21T05:29:28.590Z,1012.23
2023-05-21T05:30:28.632Z,1012.22
2023-05-21T05:31:28.643Z,1012.23
2023-05-21T05:32:28.591Z,1012.23
2023-05-21T05:33:28.586Z,1012.21
2023-05-21T05:34:28.565Z,1012.20
2023-05-21T05:35:28.534Z,1012.19
2023-05-21T05:36:28.527Z,1012.18
2023-05-21T05:37:28.522Z,1012.20
2023-05-21T05:38:28.540Z,1012.21
2023-05-21T05:39:28.507Z,1012.20
2023-05-21T05:40:28.511Z,1012.20
2023-05-21T05:41:28.477Z,1012.19
2023-05-21T05:42:28.489Z,1012.19
2023-05-21T05:43:28.461Z,1012.19
2023-05-21T05:44:28.443Z,1012.19
2023-05-21T05:45:28.441Z,1012.19
2023-05-21T05:46:28.442Z,1012.17
2023-05-21T05:47:28.478Z,1012.17
2023-05-21T05:48:28.407Z,1012.16
2023-05-21T05:49:28.404Z,1012.17
2023-05-21T05:50:28.397Z,1012.18
2023-05-21T05:51:28.388Z,1012.19
2023-05-21T05:52:28.373Z,1012.21
2023-05-21T05:53:28.342Z,1012.22
2023-05-21T05:54:28.343Z,1012.23
2023-05-21T05:55:28.333Z,1012.23
2023-05-21T05:56:28.319Z,1012.20
2023-05-21T05:57:28.304Z,1012.19
2023-05-21T05:58:28.304Z,1012.16
2023-05-21T05:59:28.297Z,1012.15
2023-05-21T06:00:28.297Z,1012.15
2023-05-21T06:01:28.330Z,1012.14
2023-05-21T06:02:28.341Z,1012.14
2023-05-21T06:03:28.509Z,1012.13
2023-05-21T06:04:28.238Z,1012.12
2023-05-21T06:05:28.270Z,1012.11
2023-05-21T06:06:28.259Z,1012.11
2023-05-21T06:07:28.208Z,1012.12
2023-05-21T06:08:28.234Z,1012.12
2023-05-21T06:09:28.213Z,1012.12
2023-05-21T06:10:28.211Z,1012.13
2023-05-21T06:11:28.167Z,1012.13
2023-05-21T06:12:28.154Z,1012.17
2023-05-21T06:13:28.180Z,1012.15
2023-05-21T06:14:28.196Z,1012.13
2023-05-21T06:15:28.109Z,1012.11
2023-05-21T06:16:28.149Z,1012.11
2023-05-21T06:17:28.136Z,1012.11
2023-05-21T06:18:28.127Z,1012.11
2023-05-21T06:19:29.045Z,1012.10
2023-05-21T06:20:28.111Z,1012.12
2023-05-21T06:21:28.094Z,1012.11
2023-05-21T06:22:28.145Z,1012.09
2023-05-21T06:23:28.047Z,1012.08
2023-05-21T06:24:28.087Z,1012.05
2023-05-21T06:25:28.038Z,1012.02
2023-05-21T06:26:28.035Z,1012.00
2023-05-21T06:27:28.057Z,1011.99
2023-05-21T06:28:27.999Z,1011.98
2023-05-21T06:29:28.031Z,1011.97
2023-05-21T06:30:27.982Z,1011.97
2023-05-21T06:31:28.018Z,1011.98
2023-05-21T06:32:28.110Z,1011.98
2023-05-21T06:33:28.063Z,1012.01
2023-05-21T06:34:27.932Z,1012.00
2023-05-21T06:35:27.947Z,1012.02
2023-05-21T06:36:28.005Z,1012.02
2023-05-21T06:37:27.919Z,1012.02
2023-05-21T06:38:27.900Z,1012.05
2023-05-21T06:39:27.898Z,1012.07
2023-05-21T06:40:27.910Z,1012.06
2023-05-21T06:41:27.905Z,1012.07
2023-05-21T06:42:27.853Z,1012.06
2023-05-21T06:43:27.870Z,1012.07
2023-05-21T06:44:27.834Z,1012.08
2023-05-21T06:45:27.843Z,1012.07
2023-05-21T06:46:27.933Z,1012.06
2023-05-21T06:47:27.859Z,1012.05
2023-05-21T06:48:27.813Z,1012.03
2023-05-21T06:49:27.833Z,1012.03
2023-05-21T06:50:27.824Z,1012.02
2023-05-21T06:51:27.794Z,1012.03
2023-05-21T06:52:27.762Z,1012.03
2023-05-21T06:53:27.750Z,1012.04
2023-05-21T06:54:27.721Z,1012.07
2023-05-21T06:55:27.756Z,1012.08
2023-05-21T06:56:27.701Z,1012.08
2023-05-21T06:57:27.724Z,1012.07
2023-05-21T06:58:27.739Z,1012.06
2023-05-21T06:59:27.690Z,1012.05
2023-05-21T07:00:27.721Z,1012.05
2023-05-21T07:01:27.695Z,1012.05
2023-05-21T07:02:27.765Z,1012.04
2023-05-21T07:03:27.729Z,1012.02
2023-05-21T07:04:27.648Z,1012.04
2023-05-21T07:05:27.649Z,1012.04
2023-05-21T07:06:27.603Z,1012.02
2023-05-21T07:07:27.607Z,1012.03
2023-05-21T07:08:27.566Z,1012.03
2023-05-21T07:09:27.581Z,1012.03
2023-05-21T07:10:27.580Z,1012.05
2023-05-21T07:11:27.576Z,1012.04
2023-05-21T07:12:27.540Z,1012.04
2023-05-21T07:13:27.516Z,1012.02
2023-05-21T07:14:27.501Z,1012.02
2023-05-21T07:15:27.518Z,1012.04
2023-05-21T07:16:27.533Z,1012.03
2023-05-21T07:17:27.529Z,1012.02
2023-05-21T07:18:27.535Z,1012.04
2023-05-21T07:19:27.576Z,1012.03
2023-05-21T07:20:27.467Z,1012.04
2023-05-21T07:21:27.456Z,1012.05
2023-05-21T07:22:28.504Z,1012.06
2023-05-21T07:23:27.473Z,1012.06
2023-05-21T07:24:27.547Z,1012.06
2023-05-21T07:25:27.433Z,1012.07
2023-05-21T07:26:27.390Z,1012.07
2023-05-21T07:27:27.391Z,1012.05
2023-05-21T07:28:27.367Z,1012.05
2023-05-21T07:29:27.386Z,1012.06
2023-05-21T07:30:27.377Z,1012.08
2023-05-21T07:31:27.452Z,1012.07
2023-05-21T07:32:27.366Z,1012.06
2023-05-21T07:33:27.315Z,1012.04
2023-05-21T07:34:27.368Z,1012.05
2023-05-21T07:35:27.289Z,1012.00
2023-05-21T07:36:27.302Z,1012.00
2023-05-21T07:37:27.372Z,1011.99
2023-05-21T07:38:27.273Z,1012.00
2023-05-21T07:39:27.267Z,1011.95
2023-05-21T07:40:27.250Z,1011.95
2023-05-21T07:41:27.251Z,1011.93
2023-05-21T07:42:27.230Z,1011.91
2023-05-21T07:43:27.245Z,1011.89
2023-05-21T07:44:27.312Z,1011.87
2023-05-21T07:45:27.299Z,1011.89
2023-05-21T07:46:27.231Z,1011.91
2023-05-21T07:47:27.183Z,1011.95
2023-05-21T07:48:27.183Z,1011.94
2023-05-21T07:49:27.192Z,1011.93
2023-05-21T07:50:27.146Z,1011.94
2023-05-21T07:51:27.122Z,1011.93
2023-05-21T07:52:27.120Z,1011.92
2023-05-21T07:53:27.116Z,1011.93
2023-05-21T07:54:27.114Z,1011.95
2023-05-21T07:55:27.121Z,1011.97
2023-05-21T07:56:27.066Z,1011.98
2023-05-21T07:57:27.080Z,1011.98
2023-05-21T07:58:27.073Z,1011.99
2023-05-21T07:59:27.066Z,1011.96
2023-05-21T08:00:27.028Z,1011.97
2023-05-21T08:01:27.082Z,1011.99
2023-05-21T08:02:27.087Z,1012.03
2023-05-21T08:03:27.200Z,1011.97
2023-05-21T08:04:27.052Z,1011.99
2023-05-21T08:05:26.979Z,1011.98
2023-05-21T08:06:26.945Z,1011.96
2023-05-21T08:07:26.976Z,1011.95
2023-05-21T08:08:26.968Z,1011.95
2023-05-21T08:09:26.934Z,1011.95
2023-05-21T08:10:26.910Z,1011.95
2023-05-21T08:11:26.954Z,1011.94
2023-05-21T08:12:26.915Z,1011.97
2023-05-21T08:13:26.879Z,1011.97
2023-05-21T08:14:26.861Z,1011.98
2023-05-21T08:15:26.864Z,1011.97
2023-05-21T08:16:26.994Z,1011.99
2023-05-21T08:17:26.860Z,1011.98
2023-05-21T08:18:26.896Z,1011.98
2023-05-21T08:19:26.860Z,1011.97
2023-05-21T08:20:26.843Z,1011.98
2023-05-21T08:21:26.837Z,1011.97
2023-05-21T08:22:26.803Z,1011.96
2023-05-21T08:23:26.791Z,1011.96
2023-05-21T08:24:26.762Z,1011.96
2023-05-21T08:25:26.799Z,1011.98
2023-05-21T08:26:26.958Z,1011.98
2023-05-21T08:27:26.766Z,1011.97
2023-05-21T08:28:26.731Z,1011.96
2023-05-21T08:29:26.714Z,1011.99
2023-05-21T08:30:26.690Z,1012.03
2023-05-21T08:31:26.747Z,1012.04
2023-05-21T08:32:26.734Z,1012.06
2023-05-21T08:33:26.686Z,1012.06
2023-05-21T08:34:26.681Z,1012.08
2023-05-21T08:35:26.676Z,1012.09
2023-05-21T08:36:26.668Z,1012.08
2023-05-21T08:37:26.657Z,1012.06
2023-05-21T08:38:28.812Z,1012.04
2023-05-21T08:39:26.644Z,1012.03
2023-05-21T08:40:26.666Z,1012.04
2023-05-21T08:41:26.602Z,1012.07
2023-05-21T08:42:36.200Z,1012.06
2023-05-21T08:43:26.647Z,1012.02
2023-05-21T08:44:26.599Z,1012.03
2023-05-21T08:45:26.623Z,1012.03
2023-05-21T08:46:26.662Z,1012.02
2023-05-21T08:47:26.595Z,1012.01
2023-05-21T08:48:26.585Z,1012.00
2023-05-21T08:49:27.319Z,1011.99
2023-05-21T08:50:26.517Z,1012.01
2023-05-21T08:51:26.487Z,1012.01
2023-05-21T08:52:26.497Z,1012.02
2023-05-21T08:53:28.578Z,1012.03
2023-05-21T08:54:26.449Z,1012.04
2023-05-21T08:55:27.015Z,1012.05
2023-05-21T08:56:26.470Z,1012.06
2023-05-21T08:57:26.452Z,1012.06
2023-05-21T08:58:26.471Z,1012.06
2023-05-21T08:59:26.441Z,1012.05
2023-05-21T09:00:26.397Z,1012.04
2023-05-21T09:01:26.766Z,1012.01
2023-05-21T09:02:26.668Z,1012.02
2023-05-21T09:03:26.548Z,1012.02
2023-05-21T09:04:26.434Z,1012.01
2023-05-21T09:05:26.353Z,1012.00
2023-05-21T09:06:26.328Z,1012.00
2023-05-21T09:07:26.375Z,1012.01
2023-05-21T09:08:26.405Z,1012.01
2023-05-21T09:09:26.331Z,1012.01
2023-05-21T09:10:26.303Z,1011.97
2023-05-21T09:11:26.287Z,1011.97
2023-05-21T09:12:26.279Z,1011.97
2023-05-21T09:13:26.302Z,1011.95
2023-05-21T09:14:26.256Z,1011.94
2023-05-21T09:15:26.239Z,1011.94
2023-05-21T09:16:26.236Z,1011.93
2023-05-21T09:17:26.307Z,1011.93
2023-05-21T09:18:26.208Z,1011.91
2023-05-21T09:19:26.319Z,1011.93
2023-05-21T09:20:26.190Z,1011.93
2023-05-21T09:21:26.252Z,1011.92
2023-05-21T09:22:26.159Z,1011.91
2023-05-21T09:23:26.167Z,1011.91
2023-05-21T09:24:26.135Z,1011.90
2023-05-21T09:25:26.184Z,1011.89
2023-05-21T09:26:26.152Z,1011.88
2023-05-21T09:27:26.140Z,1011.87
2023-05-21T09:28:26.119Z,1011.85
2023-05-21T09:29:26.164Z,1011.84
2023-05-21T09:30:34.858Z,1011.83
2023-05-21T09:31:26.145Z,1011.82
2023-05-21T09:32:26.155Z,1011.82
2023-05-21T09:33:26.077Z,1011.80
2023-05-21T09:34:26.034Z,1011.79
2023-05-21T09:35:26.044Z,1011.81
2023-05-21T09:36:26.027Z,1011.82
2023-05-21T09:37:27.554Z,1011.81
2023-05-21T09:38:26.002Z,1011.81
2023-05-21T09:39:26.019Z,1011.81
2023-05-21T09:40:25.995Z,1011.80
2023-05-21T09:41:25.990Z,1011.79
2023-05-21T09:42:25.971Z,1011.78
2023-05-21T09:43:25.993Z,1011.75
2023-05-21T09:44:25.955Z,1011.73
2023-05-21T09:45:25.914Z,1011.73
2023-05-21T09:46:25.956Z,1011.71
2023-05-21T09:47:26.071Z,1011.68
2023-05-21T09:48:25.912Z,1011.68
2023-05-21T09:49:26.725Z,1011.68
2023-05-21T09:50:25.860Z,1011.65
2023-05-21T09:51:25.889Z,1011.65
2023-05-21T09:52:25.903Z,1011.64
2023-05-21T09:53:25.883Z,1011.63
2023-05-21T09:54:25.867Z,1011.62
2023-05-21T09:55:25.870Z,1011.62
2023-05-21T09:56:25.806Z,1011.61
2023-05-21T09:57:25.850Z,1011.61
2023-05-21T09:58:25.807Z,1011.63
2023-05-21T09:59:25.801Z,1011.63
2023-05-21T10:00:26.525Z,1011.62
2023-05-21T10:01:25.774Z,1011.61
2023-05-21T10:02:25.791Z,1011.60
2023-05-21T10:03:25.764Z,1011.61
2023-05-21T10:04:25.787Z,1011.62
2023-05-21T10:05:25.765Z,1011.63
2023-05-21T10:06:25.759Z,1011.60
2023-05-21T10:07:25.737Z,1011.58
2023-05-21T10:08:25.966Z,1011.58
2023-05-21T10:09:25.663Z,1011.57
2023-05-21T10:10:25.647Z,1011.54
2023-05-21T10:11:25.672Z,1011.51
2023-05-21T10:12:25.630Z,1011.52
2023-05-21T10:13:25.640Z,1011.50
2023-05-21T10:14:25.638Z,1011.48
2023-05-21T10:15:25.762Z,1011.46
2023-05-21T10:16:25.680Z,1011.48
2023-05-21T10:17:25.694Z,1011.44
2023-05-21T10:18:25.593Z,1011.44
2023-05-21T10:19:25.649Z,1011.43
2023-05-21T10:20:25.562Z,1011.40
2023-05-21T10:21:25.550Z,1011.42
2023-05-21T10:22:25.585Z,1011.41
2023-05-21T10:23:25.588Z,1011.42
2023-05-21T10:24:25.515Z,1011.41
2023-05-21T10:25:25.491Z,1011.44
2023-05-21T10:26:25.485Z,1011.41
2023-05-21T10:27:25.482Z,1011.38
2023-05-21T10:28:25.502Z,1011.38
2023-05-21T10:29:25.465Z,1011.36
2023-05-21T10:30:25.480Z,1011.35
2023-05-21T10:31:25.438Z,1011.32
2023-05-21T10:32:25.557Z,1011.31
2023-05-21T10:33:26.138Z,1011.30
2023-05-21T10:34:25.434Z,1011.28
2023-05-21T10:35:25.417Z,1011.26
2023-05-21T10:36:25.420Z,1011.26
2023-05-21T10:37:25.383Z,1011.26
2023-05-21T10:38:25.376Z,1011.24
2023-05-21T10:39:25.448Z,1011.22
2023-05-21T10:40:25.397Z,1011.19
2023-05-21T10:41:25.365Z,1011.18
2023-05-21T10:42:25.325Z,1011.16
2023-05-21T10:43:25.328Z,1011.15
2023-05-21T10:44:25.300Z,1011.13
2023-05-21T10:45:25.342Z,1011.12
2023-05-21T10:46:25.301Z,1011.14
2023-05-21T10:47:25.318Z,1011.11
2023-05-21T10:48:25.253Z,1011.07
2023-05-21T10:49:25.239Z,1011.08
2023-05-21T10:50:25.277Z,1011.07
2023-05-21T10:51:25.883Z,1011.06
2023-05-21T10:52:25.230Z,1011.09
2023-05-21T10:53:25.196Z,1011.08
2023-05-21T10:54:25.219Z,1011.10
2023-05-21T10:55:25.213Z,1011.11
2023-05-21T10:56:25.210Z,1011.13
2023-05-21T10:57:25.203Z,1011.12
2023-05-21T10:58:25.174Z,1011.13
2023-05-21T10:59:25.177Z,1011.13
2023-05-21T11:00:25.281Z,1011.14
2023-05-21T11:01:25.151Z,1011.11
2023-05-21T11:02:25.196Z,1011.14
2023-05-21T11:03:25.242Z,1011.12
2023-05-21T11:04:25.125Z,1011.12
2023-05-21T11:05:25.084Z,1011.12
2023-05-21T11:06:25.115Z,1011.15
2023-05-21T11:07:25.141Z,1011.12
2023-05-21T11:08:25.062Z,1011.13
2023-05-21T11:09:25.057Z,1011.12
2023-05-21T11:10:25.085Z,1011.09
2023-05-21T11:11:25.012Z,1011.10
2023-05-21T11:12:24.997Z,1011.10
2023-05-21T11:13:25.009Z,1011.10
2023-05-21T11:14:24.976Z,1011.08
2023-05-21T11:15:24.999Z,1011.06
2023-05-21T11:16:25.044Z,1011.03
2023-05-21T11:17:24.972Z,1011.03
2023-05-21T11:18:24.980Z,1011.02
2023-05-21T11:19:24.958Z,1010.99
2023-05-21T11:20:24.924Z,1010.99
2023-05-21T11:21:24.897Z,1010.99
2023-05-21T11:22:24.961Z,1010.95
2023-05-21T11:23:24.911Z,1010.97
2023-05-21T11:24:24.879Z,1011.02
2023-05-21T11:25:24.901Z,1011.01
2023-05-21T11:26:24.874Z,1011.00
2023-05-21T11:27:24.836Z,1010.99
2023-05-21T11:28:24.859Z,1010.98
2023-05-21T11:29:24.832Z,1011.01
2023-05-21T11:30:24.798Z,1010.98
2023-05-21T11:31:24.824Z,1010.99
2023-05-21T11:32:24.864Z,1011.00
2023-05-21T11:33:24.844Z,1010.98
2023-05-21T11:34:24.825Z,1010.99
2023-05-21T11:35:24.781Z,1010.99
2023-05-21T11:36:24.773Z,1010.99
2023-05-21T11:37:24.748Z,1010.97
2023-05-21T11:38:24.775Z,1010.99
2023-05-21T11:39:24.704Z,1010.98
2023-05-21T11:40:24.727Z,1010.96
2023-05-21T11:41:24.685Z,1010.94
2023-05-21T11:42:24.676Z,1010.98
2023-05-21T11:43:24.669Z,1010.98
2023-05-21T11:44:24.675Z,1010.98
2023-05-21T11:45:24.649Z,1010.97
2023-05-21T11:46:24.721Z,1010.98
2023-05-21T11:47:24.727Z,1010.97
2023-05-21T11:48:27.081Z,1010.97
2023-05-21T11:49:24.659Z,1011.02
2023-05-21T11:50:24.644Z,1010.99
2023-05-21T11:51:24.691Z,1011.00
2023-05-21T11:52:24.706Z,1011.00
2023-05-21T11:53:24.575Z,1011.00
2023-05-21T11:54:24.552Z,1010.98
2023-05-21T11:55:24.529Z,1011.00
2023-05-21T11:56:24.598Z,1011.01
2023-05-21T11:57:24.520Z,1011.03
2023-05-21T11:58:24.529Z,1011.01
2023-05-21T11:59:24.503Z,1011.01
2023-05-21T12:00:24.560Z,1011.01
2023-05-21T12:01:24.479Z,1011.02
2023-05-21T12:02:24.498Z,1011.02
2023-05-21T12:03:24.502Z,1011.03
2023-05-21T12:04:24.492Z,1011.03
2023-05-21T12:05:24.482Z,1011.03